Time;durP1;ratioP1;P1;durP2;ratioP2;P2;SDS_P1;SDS_P2;PMS_P1;PMS_P2;Temp;Humidity;BMP_temperature;BMP_pressure;BME280_temperature;BME280_humidity;BME280_pressure;Samples;Min_cycle;Max_cycle;Signal;HPM_P1;HPM_P2
2023/10/13 00:01:48;;;;;;;1999.90;999.90;;;15.10;99.90;;;;;;5094249;28;20507;-73
2023/10/13 00:04:15;;;;;;;1999.90;999.90;;;15.00;99.90;;;;;;5105007;28;20917;-73
2023/10/13 00:06:43;;;;;;;1999.90;999.90;;;15.10;99.90;;;;;;5092104;28;20430;-73
2023/10/13 00:09:14;;;;;;;1999.90;999.90;;;15.30;99.90;;;;;;5091386;28;20440;-73
2023/10/13 00:11:44;;;;;;;1999.90;999.90;;;15.60;99.90;;;;;;5093676;28;20446;-72
2023/10/13 00:14:13;;;;;;;1999.90;999.90;;;15.70;99.90;;;;;;5104946;28;20504;-73
2023/10/13 00:16:41;;;;;;;1999.90;999.90;;;15.80;99.90;;;;;;5111405;28;20440;-73
2023/10/13 00:19:13;;;;;;;1999.90;999.90;;;15.90;99.90;;;;;;5111770;28;20482;-73
2023/10/13 00:21:42;;;;;;;1999.90;999.90;;;15.90;99.90;;;;;;5101648;28;20883;-73
2023/10/13 00:24:13;;;;;;;1999.90;999.90;;;15.90;99.90;;;;;;5104741;28;20485;-73
2023/10/13 00:26:43;;;;;;;1999.90;999.90;;;15.80;99.90;;;;;;5102282;28;20431;-73
2023/10/13 00:29:15;;;;;;;1999.90;999.90;;;15.80;99.90;;;;;;5096604;28;20413;-73
2023/10/13 00:31:43;;;;;;;1999.90;999.90;;;15.80;99.90;;;;;;5092906;28;20911;-72
2023/10/13 00:34:12;;;;;;;1999.90;999.90;;;16.00;99.90;;;;;;5104162;27;20759;-73
2023/10/13 00:36:47;;;;;;;1999.90;999.90;;;16.10;99.90;;;;;;5109341;28;20478;-73
2023/10/13 00:39:15;;;;;;;1999.90;999.90;;;16.00;99.90;;;;;;5111413;28;20412;-73
2023/10/13 00:41:51;;;;;;;1999.90;999.90;;;16.10;99.90;;;;;;5108907;28;20469;-73
2023/10/13 00:44:25;;;;;;;1999.90;999.90;;;16.00;99.90;;;;;;5095235;28;20420;-73
2023/10/13 00:46:55;;;;;;;1999.90;999.90;;;16.00;99.90;;;;;;5102917;28;20420;-73
2023/10/13 00:49:23;;;;;;;1999.90;999.90;;;15.90;99.90;;;;;;5111479;28;20416;-73
2023/10/13 00:51:50;;;;;;;1999.90;999.90;;;15.90;99.90;;;;;;5100908;28;20524;-72
2023/10/13 00:54:18;;;;;;;1999.90;999.90;;;15.80;99.90;;;;;;5100534;28;20408;-73
2023/10/13 00:56:49;;;;;;;1999.90;999.90;;;15.90;99.90;;;;;;5090760;28;20461;-73
2023/10/13 00:59:15;;;;;;;1999.90;999.90;;;15.90;99.90;;;;;;5090524;28;20410;-73
2023/10/13 01:01:43;;;;;;;1999.90;999.90;;;16.00;99.90;;;;;;5109693;28;20436;-73
2023/10/13 01:04:12;;;;;;;1999.90;999.90;;;16.20;99.90;;;;;;5099356;28;20871;-74
2023/10/13 01:06:40;;;;;;;1999.90;999.90;;;16.20;99.90;;;;;;5110347;28;20500;-73
2023/10/13 01:09:11;;;;;;;1999.90;999.90;;;16.20;99.90;;;;;;5110820;28;20797;-73
2023/10/13 01:11:39;;;;;;;1999.90;999.90;;;16.30;99.90;;;;;;5110606;28;20415;-73
2023/10/13 01:14:06;;;;;;;1999.90;999.90;;;16.30;99.90;;;;;;5101111;28;20429;-73
2023/10/13 01:16:33;;;;;;;1999.90;999.90;;;16.30;99.90;;;;;;5093685;28;20422;-73
2023/10/13 01:18:59;;;;;;;1999.90;999.90;;;16.20;99.90;;;;;;5103324;28;20683;-73
2023/10/13 01:21:28;;;;;;;1999.90;999.90;;;16.20;99.90;;;;;;5110559;28;20930;-73
2023/10/13 01:23:55;;;;;;;1999.90;999.90;;;16.00;99.90;;;;;;5097649;28;20428;-74
2023/10/13 01:26:24;;;;;;;1999.90;999.90;;;16.00;99.90;;;;;;5093562;28;20795;-73
2023/10/13 01:28:50;;;;;;;1999.90;999.90;;;15.90;99.90;;;;;;5090438;28;20467;-73
2023/10/13 01:31:28;;;;;;;1999.90;999.90;;;15.90;99.90;;;;;;5090365;28;20496;-73
2023/10/13 01:33:58;;;;;;;1999.90;999.90;;;16.00;99.90;;;;;;5095622;28;20425;-73
2023/10/13 01:36:25;;;;;;;1999.90;999.90;;;16.10;99.90;;;;;;5093182;28;20413;-74
2023/10/13 01:38:52;;;;;;;1999.90;999.90;;;16.00;99.90;;;;;;5090043;28;20417;-73
2023/10/13 01:41:21;;;;;;;1999.90;999.90;;;15.90;99.90;;;;;;5090308;28;20422;-73
2023/10/13 01:43:48;;;;;;;1999.90;999.90;;;15.70;99.90;;;;;;5093998;28;20428;-73
2023/10/13 01:46:19;;;;;;;1999.90;999.90;;;15.70;99.90;;;;;;5094639;28;20432;-72
2023/10/13 01:48:46;;;;;;;1999.90;999.90;;;15.60;99.90;;;;;;5093978;28;20428;-73
2023/10/13 01:51:13;;;;;;;1999.90;999.90;;;15.70;99.90;;;;;;5109527;28;20473;-73
2023/10/13 01:53:39;;;;;;;1999.90;999.90;;;15.80;99.90;;;;;;5101384;28;20425;-73
2023/10/13 01:56:10;;;;;;;1999.90;999.90;;;15.70;99.90;;;;;;5099899;28;20463;-73
2023/10/13 01:58:41;;;;;;;1999.90;999.90;;;15.60;99.90;;;;;;5094304;28;20488;-73
2023/10/13 02:01:08;;;;;;;1999.90;999.90;;;15.60;99.90;;;;;;5094008;28;20899;-73
2023/10/13 02:03:41;;;;;;;1999.90;999.90;;;15.70;99.90;;;;;;5095552;28;20445;-73
2023/10/13 02:06:10;;;;;;;1999.90;999.90;;;15.80;99.90;;;;;;5099592;28;20464;-73
2023/10/13 02:08:40;;;;;;;1999.90;999.90;;;15.90;99.90;;;;;;5093689;28;20420;-73
2023/10/13 02:11:08;;;;;;;1999.90;999.90;;;16.00;99.90;;;;;;5093915;28;20404;-74
2023/10/13 02:13:41;;;;;;;1999.90;999.90;;;16.10;99.90;;;;;;5094886;28;20438;-72
2023/10/13 02:16:11;;;;;;;1999.90;999.90;;;16.10;99.90;;;;;;5099278;28;20460;-73
2023/10/13 02:18:41;;;;;;;1999.90;999.90;;;16.20;99.90;;;;;;5095595;28;21083;-73
2023/10/13 02:21:13;;;;;;;1999.90;999.90;;;16.20;99.90;;;;;;5113998;28;20495;-74
2023/10/13 02:23:43;;;;;;;1999.90;999.90;;;16.30;99.90;;;;;;5109073;28;20840;-73
2023/10/13 02:26:14;;;;;;;1999.90;999.90;;;16.30;99.90;;;;;;5101523;28;20509;-72
2023/10/13 02:28:40;;;;;;;1999.90;999.90;;;16.40;99.90;;;;;;5112629;28;20495;-73
2023/10/13 02:31:07;;;;;;;1999.90;999.90;;;16.40;99.90;;;;;;5114126;28;20487;-73
2023/10/13 02:33:34;;;;;;;1999.90;999.90;;;16.50;99.90;;;;;;5101111;28;20438;-73
2023/10/13 02:36:05;;;;;;;1999.90;999.90;;;16.60;99.90;;;;;;5102810;28;20792;-73
2023/10/13 02:38:34;;;;;;;1999.90;999.90;;;16.70;99.90;;;;;;5108503;28;20435;-73
2023/10/13 02:41:05;;;;;;;1999.90;999.90;;;16.70;99.90;;;;;;5098247;28;20422;-73
2023/10/13 02:43:33;;;;;;;1999.90;999.90;;;16.70;99.90;;;;;;5105422;28;20477;-73
2023/10/13 02:46:01;;;;;;;1999.90;999.90;;;16.80;99.90;;;;;;5108077;28;20435;-73
2023/10/13 02:48:30;;;;;;;1999.90;999.90;;;16.70;99.90;;;;;;5107330;28;20454;-73
2023/10/13 02:51:01;;;;;;;1999.90;999.90;;;16.60;99.90;;;;;;5101113;28;20847;-74
2023/10/13 02:53:29;;;;;;;1999.90;999.90;;;16.50;99.90;;;;;;5096743;28;20425;-73
2023/10/13 02:55:56;;;;;;;1999.90;999.90;;;16.50;99.90;;;;;;5103833;28;20495;-73
2023/10/13 02:58:37;;;;;;;1999.90;999.90;;;16.40;99.90;;;;;;5104592;28;20964;-73
2023/10/13 03:01:16;;;;;;;1999.90;999.90;;;16.50;99.90;;;;;;5101231;28;20427;-73
2023/10/13 03:03:47;;;;;;;1999.90;999.90;;;16.60;99.90;;;;;;5100610;28;20446;-73
2023/10/13 03:06:15;;;;;;;1999.90;999.90;;;16.60;99.90;;;;;;5100089;28;20755;-73
2023/10/13 03:08:42;;;;;;;1999.90;999.90;;;16.70;99.90;;;;;;5106951;28;20512;-73
2023/10/13 03:11:09;;;;;;;1999.90;999.90;;;16.70;99.90;;;;;;5110513;28;20470;-73
2023/10/13 03:13:36;;;;;;;1999.90;999.90;;;16.70;99.90;;;;;;5093713;28;20432;-73
2023/10/13 03:16:12;;;;;;;1999.90;999.90;;;16.60;99.90;;;;;;5102915;28;20420;-72
2023/10/13 03:18:38;;;;;;;1999.90;999.90;;;16.60;99.90;;;;;;5102481;28;20534;-72
2023/10/13 03:21:07;;;;;;;1999.90;999.90;;;16.60;99.90;;;;;;5109513;28;20420;-73
2023/10/13 03:23:45;;;;;;;1999.90;999.90;;;16.40;99.90;;;;;;5099053;28;20842;-74
2023/10/13 03:26:16;;;;;;;1999.90;999.90;;;16.40;99.90;;;;;;5103414;28;20419;-73
2023/10/13 03:28:46;;;;;;;1999.90;999.90;;;16.30;99.90;;;;;;5101167;28;20429;-73
2023/10/13 03:31:17;;;;;;;1999.90;999.90;;;16.20;99.90;;;;;;5106353;28;20515;-74
2023/10/13 03:33:46;;;;;;;1999.90;999.90;;;16.20;99.90;;;;;;5108375;28;20949;-73
2023/10/13 03:36:56;;;;;;;1999.90;999.90;;;16.10;99.90;;;;;;5094359;28;20452;-73
2023/10/13 03:39:07;;;;;;;1999.90;999.90;;;16.10;99.90;;;;;;5097064;28;20827;-73
2023/10/13 03:41:37;;;;;;;1999.90;999.90;;;16.10;99.90;;;;;;5105226;28;20482;-73
2023/10/13 03:44:12;;;;;;;1999.90;999.90;;;16.00;99.90;;;;;;5107967;28;20431;-72
2023/10/13 03:46:40;;;;;;;1999.90;999.90;;;15.80;99.90;;;;;;5103372;28;20449;-73
2023/10/13 03:49:12;;;;;;;1999.90;999.90;;;15.80;99.90;;;;;;5098017;28;20823;-72
2023/10/13 03:51:40;;;;;;;1999.90;999.90;;;15.80;99.90;;;;;;5102399;28;20434;-73
2023/10/13 03:54:08;;;;;;;1999.90;999.90;;;15.80;99.90;;;;;;5106971;28;20428;-73
2023/10/13 03:56:39;;;;;;;1999.90;999.90;;;16.00;99.90;;;;;;5105497;28;20428;-73
2023/10/13 03:59:09;;;;;;;1999.90;999.90;;;16.00;99.90;;;;;;5093617;28;20433;-73
2023/10/13 04:01:46;;;;;;;1999.90;999.90;;;16.00;99.90;;;;;;5103481;28;20433;-73
2023/10/13 04:04:14;;;;;;;1999.90;999.90;;;16.20;99.90;;;;;;5102753;28;20509;-73
2023/10/13 04:07:13;;;;;;;1999.90;999.90;;;16.40;99.90;;;;;;5103369;28;20516;-73
2023/10/13 04:11:41;;;;;;;1999.90;999.90;;;16.70;99.90;;;;;;5106872;28;20944;-73
2023/10/13 04:15:41;;;;;;;1999.90;999.90;;;17.10;99.90;;;;;;5101584;28;20413;-73
2023/10/13 04:18:33;;;;;;;1999.90;999.90;;;17.20;99.90;;;;;;5102424;28;20439;-73
2023/10/13 04:21:18;;;;;;;1999.90;999.90;;;17.30;99.90;;;;;;5098143;28;20516;-74
2023/10/13 04:26:36;;;;;;;1999.90;999.90;;;17.30;99.90;;;;;;5098585;28;20421;-71
2023/10/13 04:29:10;;;;;;;1999.90;999.90;;;17.30;99.90;;;;;;5099781;28;20436;-73
2023/10/13 04:31:57;;;;;;;1999.90;999.90;;;17.30;99.90;;;;;;5106273;28;20427;-73
2023/10/13 04:34:28;;;;;;;1999.90;999.90;;;17.20;99.90;;;;;;5101015;28;20904;-73
2023/10/13 04:37:11;;;;;;;1999.90;999.90;;;17.00;99.90;;;;;;5095338;28;20416;-73
2023/10/13 04:39:38;;;;;;;1999.90;999.90;;;17.00;99.90;;;;;;5101532;28;20457;-73
2023/10/13 04:42:26;;;;;;;1999.90;999.90;;;17.00;99.90;;;;;;5100030;28;20464;-73
2023/10/13 04:44:56;;;;;;;1999.90;999.90;;;17.10;99.90;;;;;;5106758;28;20437;-73
2023/10/13 04:47:23;;;;;;;1999.90;999.90;;;17.20;99.90;;;;;;5101017;28;20435;-73
2023/10/13 04:49:52;;;;;;;1999.90;999.90;;;17.30;99.90;;;;;;5104170;28;20428;-74
2023/10/13 04:55:16;;;;;;;1999.90;999.90;;;17.50;99.90;;;;;;5100535;28;20489;-73
2023/10/13 04:57:49;;;;;;;1999.90;999.90;;;17.50;99.90;;;;;;5102321;28;20421;-73
2023/10/13 05:44:32;;;;;;;1999.90;999.90;;;17.60;99.90;;;;;;5091849;28;20415;-73
2023/10/13 05:44:55;;;;;;;1999.90;999.90;;;17.80;99.90;;;;;;5069559;28;20408;-73
2023/10/13 05:47:46;;;;;;;1999.90;999.90;;;17.80;99.90;;;;;;5104005;28;20845;-73
2023/10/13 05:50:29;;;;;;;1999.90;999.90;;;17.80;99.90;;;;;;5094820;28;20465;-73
2023/10/13 06:28:45;;;;;;;1999.90;999.90;;;17.80;99.90;;;;;;5099906;28;20510;-73
2023/10/13 06:31:21;;;;;;;1999.90;999.90;;;17.70;99.90;;;;;;5097356;28;20442;-73
2023/10/13 06:33:48;;;;;;;1999.90;999.90;;;17.80;99.90;;;;;;5099008;28;20813;-73
2023/10/13 06:36:17;;;;;;;1999.90;999.90;;;17.80;99.90;;;;;;5104766;27;20415;-73
2023/10/13 06:38:44;;;;;;;1999.90;999.90;;;17.80;99.90;;;;;;5100333;28;20432;-73
2023/10/13 06:41:19;;;;;;;1999.90;999.90;;;17.80;99.90;;;;;;5107224;28;20434;-73
2023/10/13 06:43:58;;;;;;;1999.90;999.90;;;18.00;99.90;;;;;;5106326;28;20450;-73
2023/10/13 06:46:28;;;;;;;1999.90;999.90;;;18.00;99.90;;;;;;5100554;28;20939;-72
2023/10/13 06:48:55;;;;;;;1999.90;999.90;;;17.90;99.90;;;;;;5110130;28;20428;-73
2023/10/13 06:51:26;;;;;;;1999.90;999.90;;;17.90;99.90;;;;;;5097137;28;20437;-74
2023/10/13 06:53:56;;;;;;;1999.90;999.90;;;18.00;99.90;;;;;;5104374;28;20485;-70
2023/10/13 06:56:26;;;;;;;1999.90;999.90;;;18.00;99.90;;;;;;5102086;28;20424;-73
2023/10/13 06:58:59;;;;;;;1999.90;999.90;;;18.00;99.90;;;;;;5104644;28;20436;-73
2023/10/13 07:01:26;;;;;;;1999.90;999.90;;;18.20;99.90;;;;;;5103218;28;20450;-72
2023/10/13 07:03:53;;;;;;;1999.90;999.90;;;18.20;99.90;;;;;;5104400;28;20946;-73
2023/10/13 07:06:20;;;;;;;1999.90;999.90;;;18.30;99.90;;;;;;5104083;28;20424;-72
2023/10/13 07:08:52;;;;;;;1999.90;999.90;;;18.30;99.90;;;;;;5098204;28;20513;-73
2023/10/13 07:11:31;;;;;;;1999.90;999.90;;;18.30;99.90;;;;;;5092386;28;20426;-73
2023/10/13 07:13:58;;;;;;;1999.90;999.90;;;18.30;99.90;;;;;;5105647;28;20435;-73
2023/10/13 07:16:35;;;;;;;1999.90;999.90;;;18.30;99.90;;;;;;5104437;28;20402;-72
2023/10/13 07:19:05;;;;;;;1999.90;999.90;;;18.40;99.90;;;;;;5092794;28;20463;-72
2023/10/13 07:21:32;;;;;;;1999.90;999.90;;;18.50;99.90;;;;;;5092851;28;20430;-73
2023/10/13 07:24:08;;;;;;;1999.90;999.90;;;18.50;99.90;;;;;;5108894;28;20931;-73
2023/10/13 07:26:42;;;;;;;1999.90;999.90;;;18.50;99.90;;;;;;5094480;27;20433;-72
2023/10/13 07:29:09;;;;;;;1999.90;999.90;;;18.50;99.90;;;;;;5092613;28;20494;-73
2023/10/13 07:31:37;;;;;;;1999.90;999.90;;;18.40;99.90;;;;;;5093153;28;20437;-72
2023/10/13 07:34:12;;;;;;;1999.90;999.90;;;18.50;99.90;;;;;;5108757;28;20435;-72
2023/10/13 07:36:40;;;;;;;1999.90;999.90;;;18.60;99.90;;;;;;5103318;28;20449;-73
2023/10/13 07:39:21;;;;;;;1999.90;999.90;;;18.70;99.90;;;;;;5108681;28;20784;-73
2023/10/13 07:41:54;;;;;;;1999.90;999.90;;;18.80;99.90;;;;;;5111361;28;20428;-72
2023/10/13 07:44:24;;;;;;;1999.90;999.90;;;18.80;99.90;;;;;;5104186;28;20416;-72
2023/10/13 07:46:58;;;;;;;1999.90;999.90;;;19.00;99.90;;;;;;5103681;28;20429;-72
2023/10/13 07:49:31;;;;;;;1999.90;999.90;;;19.00;99.90;;;;;;5112387;28;20797;-73
2023/10/13 07:52:00;;;;;;;1999.90;999.90;;;19.00;99.90;;;;;;5095869;28;20424;-73
2023/10/13 07:54:28;;;;;;;1999.90;999.90;;;19.00;99.90;;;;;;5107958;28;20416;-72
2023/10/13 07:56:55;;;;;;;1999.90;999.90;;;19.10;99.90;;;;;;5092736;28;20908;-72
2023/10/13 07:59:23;;;;;;;1999.90;999.90;;;19.20;99.90;;;;;;5108129;28;20408;-72
2023/10/13 08:02:12;;;;;;;1999.90;999.90;;;19.30;99.90;;;;;;5094483;28;20435;-72
2023/10/13 08:04:38;;;;;;;1999.90;999.90;;;19.40;99.90;;;;;;5108426;28;20416;-73
2023/10/13 08:07:13;;;;;;;1999.90;999.90;;;19.20;99.90;;;;;;5091292;28;20942;-73
2023/10/13 08:09:43;;;;;;;1999.90;999.90;;;19.20;99.90;;;;;;5091634;28;20778;-72
2023/10/13 08:12:11;;;;;;;1999.90;999.90;;;19.20;99.90;;;;;;5097141;28;20506;-72
2023/10/13 08:14:40;;;;;;;1999.90;999.90;;;19.30;99.90;;;;;;5104631;28;20430;-72
2023/10/13 08:17:10;;;;;;;1999.90;999.90;;;19.40;99.90;;;;;;5103907;28;20410;-72
2023/10/13 08:19:44;;;;;;;1999.90;999.90;;;19.40;99.90;;;;;;5091392;28;20513;-72
2023/10/13 08:22:25;;;;;;;1999.90;999.90;;;19.40;99.90;;;;;;5096842;28;20428;-73
2023/10/13 08:25:14;;;;;;;1999.90;999.90;;;19.50;99.90;;;;;;5103288;28;20400;-72
2023/10/13 08:28:04;;;;;;;1999.90;999.90;;;19.50;99.90;;;;;;5111369;28;20840;-72
2023/10/13 08:30:42;;;;;;;1999.90;999.90;;;19.60;99.90;;;;;;5102934;28;20802;-72
2023/10/13 08:33:17;;;;;;;1999.90;999.90;;;19.60;99.90;;;;;;5105812;28;20428;-71
2023/10/13 08:35:54;;;;;;;1999.90;999.90;;;19.70;99.90;;;;;;5104181;28;20434;-71
2023/10/13 08:38:28;;;;;;;1999.90;999.90;;;19.70;99.90;;;;;;5090720;28;20570;-73
2023/10/13 08:43:50;;;;;;;1999.90;999.90;;;19.60;99.90;;;;;;5102282;28;20512;-72
2023/10/13 08:46:27;;;;;;;1999.90;999.90;;;19.60;99.90;;;;;;5107975;27;20503;-71
2023/10/13 08:49:04;;;;;;;1999.90;999.90;;;19.70;99.90;;;;;;5098115;28;20438;-72
2023/10/13 08:51:43;;;;;;;1999.90;999.90;;;19.80;99.90;;;;;;5102419;28;20504;-72
2023/10/13 08:54:33;;;;;;;1999.90;999.90;;;19.90;99.90;;;;;;5102282;28;20790;-71
2023/10/13 08:57:19;;;;;;;1999.90;999.90;;;19.80;99.90;;;;;;5104430;28;20454;-73
2023/10/13 08:59:52;;;;;;;1999.90;999.90;;;19.90;99.90;;;;;;5101652;28;20517;-72
2023/10/13 09:02:21;;;;;;;1999.90;999.90;;;19.90;99.90;;;;;;5104132;28;20422;-73
2023/10/13 09:04:59;;;;;;;1999.90;999.90;;;19.90;99.90;;;;;;5105535;28;20412;-72
2023/10/13 09:07:25;;;;;;;1999.90;999.90;;;20.00;99.90;;;;;;5098570;28;20430;-72
2023/10/13 09:10:11;;;;;;;1999.90;999.90;;;20.00;99.90;;;;;;5104330;28;20797;-72
2023/10/13 09:12:42;;;;;;;1999.90;999.90;;;20.10;99.90;;;;;;5101677;28;20430;-72
2023/10/13 09:15:23;;;;;;;1999.90;999.90;;;20.20;99.90;;;;;;5103157;28;20476;-73
2023/10/13 09:18:07;;;;;;;1999.90;999.90;;;20.20;99.90;;;;;;5094271;28;20511;-73
2023/10/13 09:20:43;;;;;;;1999.90;999.90;;;20.30;99.90;;;;;;5103228;28;20424;-73
2023/10/13 09:23:12;;;;;;;1999.90;999.90;;;20.30;99.90;;;;;;5104797;28;20514;-73
2023/10/13 09:25:53;;;;;;;1999.90;999.90;;;20.30;99.90;;;;;;5102080;28;20416;-72
2023/10/13 09:28:22;;;;;;;1999.90;999.90;;;20.40;99.90;;;;;;5099408;28;20434;-72
2023/10/13 09:30:50;;;;;;;1999.90;999.90;;;20.40;99.90;;;;;;5108691;28;20484;-73
2023/10/13 09:33:28;;;;;;;1999.90;999.90;;;20.40;99.90;;;;;;5102880;28;20432;-73
2023/10/13 09:35:59;;;;;;;1999.90;999.90;;;20.40;99.90;;;;;;5095454;28;20513;-73
2023/10/13 09:38:25;;;;;;;1999.90;999.90;;;20.40;99.90;;;;;;5102684;28;20443;-73
2023/10/13 09:40:57;;;;;;;1999.90;999.90;;;20.50;99.90;;;;;;5099246;28;20499;-72
2023/10/13 09:43:25;;;;;;;1999.90;999.90;;;20.60;99.90;;;;;;5108508;28;20432;-72
2023/10/13 09:46:01;;;;;;;1999.90;999.90;;;20.70;99.90;;;;;;5098460;28;20456;-73
2023/10/13 09:48:32;;;;;;;1999.90;999.90;;;20.70;99.90;;;;;;5100553;28;20844;-72
2023/10/13 09:51:01;;;;;;;1999.90;999.90;;;20.80;99.90;;;;;;5105711;28;20793;-72
2023/10/13 09:53:29;;;;;;;1999.90;999.90;;;20.90;99.90;;;;;;5099131;28;20435;-73
2023/10/13 09:56:12;;;;;;;1999.90;999.90;;;20.90;99.90;;;;;;5105223;28;20964;-72
2023/10/13 09:58:47;;;;;;;1999.90;999.90;;;20.90;99.90;;;;;;5100011;28;20916;-73
2023/10/13 10:01:21;;;;;;;1999.90;999.90;;;21.00;99.90;;;;;;5105928;28;20428;-73
2023/10/13 10:03:51;;;;;;;1999.90;999.90;;;21.00;99.90;;;;;;5102290;28;20426;-72
2023/10/13 10:06:27;;;;;;;1999.90;999.90;;;21.00;99.90;;;;;;5098824;28;20416;-73
2023/10/13 10:09:11;;;;;;;1999.90;999.90;;;21.00;99.90;;;;;;5102204;28;20471;-73
2023/10/13 10:12:11;;;;;;;1999.90;999.90;;;21.00;99.90;;;;;;5107914;28;20879;-72
2023/10/13 10:14:58;;;;;;;1999.90;999.90;;;21.10;99.90;;;;;;5103656;28;20428;-73
2023/10/13 10:17:29;;;;;;;1999.90;999.90;;;21.20;99.90;;;;;;5107341;28;20441;-71
2023/10/13 10:19:57;;;;;;;1999.90;999.90;;;21.30;99.90;;;;;;5105005;28;20420;-73
2023/10/13 10:22:30;;;;;;;1999.90;999.90;;;21.50;99.90;;;;;;5109631;28;20427;-73
2023/10/13 10:24:58;;;;;;;1999.90;999.90;;;21.50;99.90;;;;;;5104169;28;20923;-72
2023/10/13 10:27:26;;;;;;;1999.90;999.90;;;21.50;99.90;;;;;;5106169;28;20425;-72
2023/10/13 10:29:58;;;;;;;1999.90;999.90;;;21.50;99.90;;;;;;5103337;28;20444;-73
2023/10/13 10:32:34;;;;;;;1999.90;999.90;;;21.60;99.90;;;;;;5108579;28;20431;-72
2023/10/13 10:35:14;;;;;;;1999.90;999.90;;;21.60;99.90;;;;;;5103380;28;20834;-72
2023/10/13 10:37:46;;;;;;;1999.90;999.90;;;21.70;99.90;;;;;;5105979;28;20424;-72
2023/10/13 10:40:32;;;;;;;1999.90;999.90;;;21.80;99.90;;;;;;5108485;28;20456;-73
2023/10/13 10:43:00;;;;;;;1999.90;999.90;;;21.80;99.90;;;;;;5099836;28;20424;-74
2023/10/13 10:45:32;;;;;;;1999.90;999.90;;;21.80;99.90;;;;;;5108458;28;20441;-72
2023/10/13 10:47:59;;;;;;;1999.90;999.90;;;21.90;99.90;;;;;;5103467;28;20437;-73
2023/10/13 10:50:34;;;;;;;1999.90;999.90;;;21.90;99.90;;;;;;5102622;28;20461;-73
2023/10/13 10:53:02;;;;;;;1999.90;999.90;;;21.90;99.90;;;;;;5106847;28;20440;-73
2023/10/13 10:55:30;;;;;;;1999.90;999.90;;;21.90;99.90;;;;;;5106764;28;21134;-73
2023/10/13 10:58:01;;;;;;;1999.90;999.90;;;21.90;99.90;;;;;;5106430;28;20979;-73
2023/10/13 11:00:41;;;;;;;1999.90;999.90;;;22.00;99.90;;;;;;5104859;28;20512;-73
2023/10/13 11:03:10;;;;;;;1999.90;999.90;;;21.80;99.90;;;;;;5097623;28;20863;-73
2023/10/13 11:05:44;;;;;;;1999.90;999.90;;;21.90;99.90;;;;;;5101149;28;20929;-71
2023/10/13 11:08:25;;;;;;;1999.90;999.90;;;21.90;99.90;;;;;;5109664;28;20428;-73
2023/10/13 11:10:52;;;;;;;1999.90;999.90;;;22.00;99.90;;;;;;5105180;28;20452;-73
2023/10/13 11:13:22;;;;;;;1999.90;999.90;;;22.20;99.90;;;;;;5100922;28;20441;-72
2023/10/13 11:15:50;;;;;;;1999.90;999.90;;;22.20;99.90;;;;;;5099294;28;20789;-73
2023/10/13 11:18:21;;;;;;;1999.90;999.90;;;22.40;99.90;;;;;;5107845;28;20420;-71
2023/10/13 11:20:53;;;;;;;1999.90;999.90;;;22.60;99.90;;;;;;5102411;28;20512;-73
2023/10/13 11:23:25;;;;;;;1999.90;999.90;;;22.80;99.90;;;;;;5096872;28;20512;-72
2023/10/13 11:25:58;;;;;;;1999.90;999.90;;;23.00;99.90;;;;;;5097494;28;20799;-73
2023/10/13 11:28:28;;;;;;;1999.90;999.90;;;23.20;99.90;;;;;;5096647;28;20480;-73
2023/10/13 11:30:58;;;;;;;1999.90;999.90;;;23.10;99.90;;;;;;5097248;28;20422;-73
2023/10/13 11:33:26;;;;;;;1999.90;999.90;;;23.20;99.90;;;;;;5107845;28;20806;-73
2023/10/13 11:36:03;;;;;;;1999.90;999.90;;;23.20;99.90;;;;;;5103312;28;20938;-73
2023/10/13 11:38:42;;;;;;;1999.90;999.90;;;23.60;99.90;;;;;;5101882;28;20427;-73
2023/10/13 11:41:12;;;;;;;1999.90;999.90;;;23.40;99.90;;;;;;5097559;28;20429;-73
2023/10/13 11:49:18;;;;;;;1999.90;999.90;;;23.60;99.90;;;;;;5094137;28;20433;-72
2023/10/13 11:51:46;;;;;;;1999.90;999.90;;;23.50;99.90;;;;;;5100560;28;20525;-73
2023/10/13 11:54:14;;;;;;;1999.90;999.90;;;23.60;99.90;;;;;;5107958;28;20431;-73
2023/10/13 11:56:41;;;;;;;1999.90;999.90;;;23.50;99.90;;;;;;5099868;28;20424;-73
2023/10/13 11:59:15;;;;;;;1999.90;999.90;;;23.60;99.90;;;;;;5101257;28;20949;-73
2023/10/13 12:04:40;;;;;;;1999.90;999.90;;;23.60;99.90;;;;;;5108235;28;20435;-73
2023/10/13 12:07:19;;;;;;;1999.90;999.90;;;23.30;99.90;;;;;;5099935;28;20452;-73
2023/10/13 12:10:03;;;;;;;1999.90;999.90;;;23.20;99.90;;;;;;5104265;28;20942;-73
2023/10/13 12:12:31;;;;;;;1999.90;999.90;;;23.20;99.90;;;;;;5097068;28;20426;-73
2023/10/13 12:15:09;;;;;;;1999.90;999.90;;;23.20;99.90;;;;;;5096890;28;20432;-73
2023/10/13 12:17:39;;;;;;;1999.90;999.90;;;23.00;99.90;;;;;;5100055;28;21085;-73
2023/10/13 12:20:10;;;;;;;1999.90;999.90;;;22.90;99.90;;;;;;5093909;28;20522;-74
2023/10/13 12:22:39;;;;;;;1999.90;999.90;;;23.20;99.90;;;;;;5094489;28;20432;-73
2023/10/13 12:25:18;;;;;;;1999.90;999.90;;;23.50;99.90;;;;;;5092261;28;20513;-73
2023/10/13 12:27:48;;;;;;;1999.90;999.90;;;23.60;99.90;;;;;;5102590;28;20424;-73
2023/10/13 12:30:22;;;;;;;1999.90;999.90;;;23.60;99.90;;;;;;5105592;28;20515;-74
2023/10/13 12:33:06;;;;;;;1999.90;999.90;;;23.60;99.90;;;;;;5098473;28;20438;-74
2023/10/13 12:35:35;;;;;;;1999.90;999.90;;;23.60;99.90;;;;;;5101341;28;20502;-74
2023/10/13 12:38:05;;;;;;;1999.90;999.90;;;23.60;99.90;;;;;;5096588;28;20457;-73
2023/10/13 12:49:04;;;;;;;1999.90;999.90;;;23.70;99.90;;;;;;5069006;28;21050;-73
2023/10/13 12:51:51;;;;;;;1999.90;999.90;;;23.70;99.90;;;;;;5103645;28;20564;-74
2023/10/13 12:54:23;;;;;;;1999.90;999.90;;;23.70;99.90;;;;;;5105189;28;20473;-73
2023/10/13 12:56:56;;;;;;;1999.90;999.90;;;23.60;99.90;;;;;;5103527;28;20433;-73
2023/10/13 12:59:26;;;;;;;1999.90;999.90;;;23.60;99.90;;;;;;5094956;28;20473;-73
2023/10/13 13:01:53;;;;;;;1999.90;999.90;;;23.60;99.90;;;;;;5091507;28;20561;-73
2023/10/13 13:04:21;;;;;;;1999.90;999.90;;;23.70;99.90;;;;;;5103471;28;20424;-74
2023/10/13 13:06:49;;;;;;;1999.90;999.90;;;23.80;99.90;;;;;;5095369;28;20430;-74
2023/10/13 13:09:15;;;;;;;1999.90;999.90;;;23.80;99.90;;;;;;5095106;28;20808;-73
2023/10/13 13:11:42;;;;;;;1999.90;999.90;;;23.80;99.90;;;;;;5091662;28;20521;-73
2023/10/13 13:14:10;;;;;;;1999.90;999.90;;;23.90;99.90;;;;;;5092041;28;20459;-73
2023/10/13 13:16:38;;;;;;;1999.90;999.90;;;23.90;99.90;;;;;;5100602;28;20434;-74
2023/10/13 13:19:10;;;;;;;1999.90;999.90;;;23.80;99.90;;;;;;5096216;28;20429;-74
2023/10/13 13:21:38;;;;;;;1999.90;999.90;;;23.90;99.90;;;;;;5097269;28;20438;-74
2023/10/13 13:24:10;;;;;;;1999.90;999.90;;;23.90;99.90;;;;;;5093711;28;20428;-73
2023/10/13 13:26:40;;;;;;;1999.90;999.90;;;24.10;99.90;;;;;;5100853;28;20436;-73
2023/10/13 13:29:10;;;;;;;1999.90;999.90;;;24.20;99.90;;;;;;5095004;28;20426;-74
2023/10/13 13:31:41;;;;;;;1999.90;999.90;;;24.20;99.90;;;;;;5100160;28;20491;-73
2023/10/13 13:34:09;;;;;;;1999.90;999.90;;;23.90;99.90;;;;;;5096692;28;20432;-73
2023/10/13 13:36:35;;;;;;;1999.90;999.90;;;23.90;99.90;;;;;;5092433;28;20422;-73
2023/10/13 13:39:05;;;;;;;1999.90;999.90;;;24.30;99.90;;;;;;5091247;28;20422;-74
2023/10/13 13:41:33;;;;;;;1999.90;999.90;;;24.00;99.90;;;;;;5101839;28;20424;-73
2023/10/13 13:44:13;;;;;;;1999.90;999.90;;;24.00;99.90;;;;;;5092733;28;20414;-73
2023/10/13 13:46:42;;;;;;;1999.90;999.90;;;24.10;99.90;;;;;;5094348;28;20468;-74
2023/10/13 13:49:17;;;;;;;1999.90;999.90;;;24.10;99.90;;;;;;5094516;28;20471;-74
2023/10/13 13:51:51;;;;;;;1999.90;999.90;;;24.00;99.90;;;;;;5096539;28;20497;-73
2023/10/13 13:54:20;;;;;;;1999.90;999.90;;;23.90;99.90;;;;;;5098992;28;20414;-73
2023/10/13 13:56:47;;;;;;;1999.90;999.90;;;23.90;99.90;;;;;;5093942;28;20477;-74
2023/10/13 13:59:18;;;;;;;1999.90;999.90;;;24.00;99.90;;;;;;5094459;28;20410;-74
2023/10/13 14:01:45;;;;;;;1999.90;999.90;;;24.00;99.90;;;;;;5094264;28;20414;-73
2023/10/13 14:04:14;;;;;;;1999.90;999.90;;;23.90;99.90;;;;;;5098890;28;20492;-74
2023/10/13 14:06:40;;;;;;;1999.90;999.90;;;23.90;99.90;;;;;;5103316;28;20939;-74
2023/10/13 14:09:15;;;;;;;1999.90;999.90;;;24.00;99.90;;;;;;5101085;28;20420;-74